<?xml version="1.0" encoding="UTF-8" standalone="no" ?>
<gpx xmlns="http://www.topografix.com/GPX/1/1" xmlns:xsi="http://www.w3.org/2001/XMLSchema-instance" xsi:schemaLocation="http://www.topografix.com/GPX/1/1 http://www.topografix.com/GPX/1/1/gpx.xsd" version="1.1" creator="VisuGPX - https://www.visugpx.com">
  <metadata>
    <name>Suède</name>
  </metadata>
  <trk>
    <name><![CDATA[Tour d'Europe: étape 102]]></name>
    <trkseg>
      <trkpt lat="62.04957" lon="17.24823">
        <ele>79.891792</ele>
        <time>2020-10-08T07:45:54.831Z</time>
      </trkpt>
      <trkpt lat="62.04738" lon="17.24861">
        <ele>79.133315</ele>
        <time>2020-10-08T07:46:49.887Z</time>
      </trkpt>
      <trkpt lat="62.04704" lon="17.2442">
        <ele>86.17762</ele>
        <time>2020-10-08T07:48:04.840Z</time>
      </trkpt>
      <trkpt lat="62.04735" lon="17.23941">
        <ele>75.337788</ele>
        <time>2020-10-08T07:48:50.822Z</time>
      </trkpt>
      <trkpt lat="62.04626" lon="17.24083">
        <ele>76.560805</ele>
        <time>2020-10-08T07:50:18.901Z</time>
      </trkpt>
      <trkpt lat="62.04431" lon="17.2407">
        <ele>89.801212</ele>
        <time>2020-10-08T07:52:14.853Z</time>
      </trkpt>
      <trkpt lat="62.04374" lon="17.24354">
        <ele>98.943689</ele>
        <time>2020-10-08T07:53:56.838Z</time>
      </trkpt>
      <trkpt lat="62.04254" lon="17.24352">
        <ele>111.553233</ele>
        <time>2020-10-08T07:55:35.846Z</time>
      </trkpt>
      <trkpt lat="62.04056" lon="17.24258">
        <ele>127.968859</ele>
        <time>2020-10-08T07:57:02.877Z</time>
      </trkpt>
      <trkpt lat="62.03858" lon="17.2416">
        <ele>132.189455</ele>
        <time>2020-10-08T07:58:26.844Z</time>
      </trkpt>
      <trkpt lat="62.0369" lon="17.24331">
        <ele>129.498558</ele>
        <time>2020-10-08T07:59:41.849Z</time>
      </trkpt>
      <trkpt lat="62.03508" lon="17.24536">
        <ele>123.023886</ele>
        <time>2020-10-08T08:00:57.833Z</time>
      </trkpt>
      <trkpt lat="62.03293" lon="17.24739">
        <ele>116.587965</ele>
        <time>2020-10-08T08:02:02.830Z</time>
      </trkpt>
      <trkpt lat="62.03071" lon="17.24673">
        <ele>122.216548</ele>
        <time>2020-10-08T08:03:06.846Z</time>
      </trkpt>
      <trkpt lat="62.0287" lon="17.24611">
        <ele>129.006728</ele>
        <time>2020-10-08T08:04:30.848Z</time>
      </trkpt>
      <trkpt lat="62.02637" lon="17.24531">
        <ele>130.121912</ele>
        <time>2020-10-08T08:05:29.844Z</time>
      </trkpt>
      <trkpt lat="62.02445" lon="17.24602">
        <ele>134.162209</ele>
        <time>2020-10-08T08:06:36.836Z</time>
      </trkpt>
      <trkpt lat="62.02223" lon="17.24678">
        <ele>131.572776</ele>
        <time>2020-10-08T08:07:21.831Z</time>
      </trkpt>
      <trkpt lat="62.02021" lon="17.24519">
        <ele>127.209871</ele>
        <time>2020-10-08T08:08:12.833Z</time>
      </trkpt>
      <trkpt lat="62.01835" lon="17.24264">
        <ele>123.351749</ele>
        <time>2020-10-08T08:09:15.887Z</time>
      </trkpt>
      <trkpt lat="62.01672" lon="17.24011">
        <ele>124.71222</ele>
        <time>2020-10-08T08:10:16.843Z</time>
      </trkpt>
      <trkpt lat="62.01482" lon="17.23687">
        <ele>124.854555</ele>
        <time>2020-10-08T08:11:01.868Z</time>
      </trkpt>
      <trkpt lat="62.01253" lon="17.23653">
        <ele>120.658511</ele>
        <time>2020-10-08T08:11:59.845Z</time>
      </trkpt>
      <trkpt lat="62.01028" lon="17.23655">
        <ele>120.58741</ele>
        <time>2020-10-08T08:12:59.868Z</time>
      </trkpt>
      <trkpt lat="62.00821" lon="17.23577">
        <ele>117.990052</ele>
        <time>2020-10-08T08:14:00.844Z</time>
      </trkpt>
      <trkpt lat="62.00602" lon="17.2359">
        <ele>117.154305</ele>
        <time>2020-10-08T08:14:48.847Z</time>
      </trkpt>
      <trkpt lat="62.00409" lon="17.23442">
        <ele>132.244298</ele>
        <time>2020-10-08T08:16:21.836Z</time>
      </trkpt>
      <trkpt lat="62.00248" lon="17.2368">
        <ele>131.022799</ele>
        <time>2020-10-08T08:18:00.834Z</time>
      </trkpt>
      <trkpt lat="62.00073" lon="17.23913">
        <ele>124.489053</ele>
        <time>2020-10-08T08:19:12.863Z</time>
      </trkpt>
      <trkpt lat="61.9988" lon="17.23878">
        <ele>119.779433</ele>
        <time>2020-10-08T08:20:29.864Z</time>
      </trkpt>
      <trkpt lat="61.99691" lon="17.2385">
        <ele>123.561835</ele>
        <time>2020-10-08T08:21:52.857Z</time>
      </trkpt>
      <trkpt lat="61.99503" lon="17.23626">
        <ele>117.090339</ele>
        <time>2020-10-08T08:24:44.867Z</time>
      </trkpt>
      <trkpt lat="61.99311" lon="17.23492">
        <ele>117.094696</ele>
        <time>2020-10-08T08:25:57.835Z</time>
      </trkpt>
      <trkpt lat="61.99104" lon="17.23651">
        <ele>105.541039</ele>
        <time>2020-10-08T08:26:42.834Z</time>
      </trkpt>
      <trkpt lat="61.98994" lon="17.24012">
        <ele>95.074288</ele>
        <time>2020-10-08T08:27:47.841Z</time>
      </trkpt>
      <trkpt lat="61.98829" lon="17.24291">
        <ele>93.432129</ele>
        <time>2020-10-08T08:28:56.841Z</time>
      </trkpt>
      <trkpt lat="61.98712" lon="17.24696">
        <ele>91.584003</ele>
        <time>2020-10-08T08:29:47.849Z</time>
      </trkpt>
      <trkpt lat="61.98568" lon="17.2508">
        <ele>87.962974</ele>
        <time>2020-10-08T08:30:28.861Z</time>
      </trkpt>
      <trkpt lat="61.98359" lon="17.25101">
        <ele>92.246826</ele>
        <time>2020-10-08T08:31:32.847Z</time>
      </trkpt>
      <trkpt lat="61.98133" lon="17.24912">
        <ele>81.24137</ele>
        <time>2020-10-08T08:32:19.902Z</time>
      </trkpt>
      <trkpt lat="61.97898" lon="17.2493">
        <ele>73.408305</ele>
        <time>2020-10-08T08:33:02.841Z</time>
      </trkpt>
      <trkpt lat="61.97727" lon="17.24648">
        <ele>61.174968</ele>
        <time>2020-10-08T08:33:44.860Z</time>
      </trkpt>
      <trkpt lat="61.97644" lon="17.25089">
        <ele>58.087589</ele>
        <time>2020-10-08T08:34:29.879Z</time>
      </trkpt>
      <trkpt lat="61.97463" lon="17.25203">
        <ele>54.129343</ele>
        <time>2020-10-08T08:35:13.899Z</time>
      </trkpt>
      <trkpt lat="61.97242" lon="17.25129">
        <ele>45.068546</ele>
        <time>2020-10-08T08:35:41.868Z</time>
      </trkpt>
      <trkpt lat="61.97025" lon="17.25106">
        <ele>46.14929</ele>
        <time>2020-10-08T08:36:29.871Z</time>
      </trkpt>
      <trkpt lat="61.96848" lon="17.24885">
        <ele>52.211862</ele>
        <time>2020-10-08T08:37:44.872Z</time>
      </trkpt>
      <trkpt lat="61.9667" lon="17.24906">
        <ele>52.747114</ele>
        <time>2020-10-08T08:38:41.848Z</time>
      </trkpt>
      <trkpt lat="61.96483" lon="17.2469">
        <ele>53.54847</ele>
        <time>2020-10-08T08:39:37.836Z</time>
      </trkpt>
      <trkpt lat="61.96389" lon="17.25025">
        <ele>51.948043</ele>
        <time>2020-10-08T08:40:38.850Z</time>
      </trkpt>
      <trkpt lat="61.96184" lon="17.25356">
        <ele>40.678366</ele>
        <time>2020-10-08T08:41:28.867Z</time>
      </trkpt>
      <trkpt lat="61.95982" lon="17.25369">
        <ele>45.520647</ele>
        <time>2020-10-08T08:42:32.865Z</time>
      </trkpt>
      <trkpt lat="61.95791" lon="17.25251">
        <ele>65.376844</ele>
        <time>2020-10-08T08:44:20.854Z</time>
      </trkpt>
      <trkpt lat="61.95602" lon="17.25182">
        <ele>79.966122</ele>
        <time>2020-10-08T08:46:12.868Z</time>
      </trkpt>
      <trkpt lat="61.9539" lon="17.25185">
        <ele>73.91689</ele>
        <time>2020-10-08T08:47:21.866Z</time>
      </trkpt>
      <trkpt lat="61.95186" lon="17.25175">
        <ele>86.087455</ele>
        <time>2020-10-08T08:48:31.951Z</time>
      </trkpt>
      <trkpt lat="61.94998" lon="17.25359">
        <ele>75.380417</ele>
        <time>2020-10-08T08:49:44.852Z</time>
      </trkpt>
      <trkpt lat="61.94852" lon="17.25705">
        <ele>73.485424</ele>
        <time>2020-10-08T08:50:43.878Z</time>
      </trkpt>
      <trkpt lat="61.94666" lon="17.26084">
        <ele>68.324792</ele>
        <time>2020-10-08T08:51:23.873Z</time>
      </trkpt>
      <trkpt lat="61.94474" lon="17.26345">
        <ele>65.739732</ele>
        <time>2020-10-08T08:52:03.863Z</time>
      </trkpt>
      <trkpt lat="61.94282" lon="17.26589">
        <ele>67.670673</ele>
        <time>2020-10-08T08:52:47.845Z</time>
      </trkpt>
      <trkpt lat="61.94257" lon="17.27014">
        <ele>67.13986</ele>
        <time>2020-10-08T08:53:35.848Z</time>
      </trkpt>
      <trkpt lat="61.94331" lon="17.2753">
        <ele>57.626659</ele>
        <time>2020-10-08T08:54:15.837Z</time>
      </trkpt>
      <trkpt lat="61.94263" lon="17.27926">
        <ele>48.252139</ele>
        <time>2020-10-08T08:54:55.841Z</time>
      </trkpt>
      <trkpt lat="61.94277" lon="17.28405">
        <ele>48.653189</ele>
        <time>2020-10-08T08:55:54.839Z</time>
      </trkpt>
      <trkpt lat="61.94177" lon="17.28694">
        <ele>55.005871</ele>
        <time>2020-10-08T08:57:06.894Z</time>
      </trkpt>
      <trkpt lat="61.93976" lon="17.28506">
        <ele>47.495194</ele>
        <time>2020-10-08T08:57:44.827Z</time>
      </trkpt>
      <trkpt lat="61.93766" lon="17.28303">
        <ele>49.950853</ele>
        <time>2020-10-08T08:58:42.846Z</time>
      </trkpt>
      <trkpt lat="61.93594" lon="17.28048">
        <ele>55.873913</ele>
        <time>2020-10-08T09:00:08.861Z</time>
      </trkpt>
      <trkpt lat="61.93455" lon="17.2773">
        <ele>64.009285</ele>
        <time>2020-10-08T09:01:32.835Z</time>
      </trkpt>
      <trkpt lat="61.93425" lon="17.27303">
        <ele>72.40973</ele>
        <time>2020-10-08T09:02:45.837Z</time>
      </trkpt>
      <trkpt lat="61.93329" lon="17.2687">
        <ele>65.255909</ele>
        <time>2020-10-08T09:03:40.843Z</time>
      </trkpt>
      <trkpt lat="61.93196" lon="17.26413">
        <ele>61.531907</ele>
        <time>2020-10-08T09:04:28.864Z</time>
      </trkpt>
      <trkpt lat="61.93139" lon="17.25953">
        <ele>58.264378</ele>
        <time>2020-10-08T09:05:23.868Z</time>
      </trkpt>
      <trkpt lat="61.93092" lon="17.25464">
        <ele>59.9717</ele>
        <time>2020-10-08T09:06:19.842Z</time>
      </trkpt>
      <trkpt lat="61.93045" lon="17.24992">
        <ele>64.031728</ele>
        <time>2020-10-08T09:07:23.844Z</time>
      </trkpt>
      <trkpt lat="61.92956" lon="17.24491">
        <ele>55.943399</ele>
        <time>2020-10-08T09:08:05.836Z</time>
      </trkpt>
      <trkpt lat="61.92843" lon="17.23969">
        <ele>44.570294</ele>
        <time>2020-10-08T09:08:45.841Z</time>
      </trkpt>
      <trkpt lat="61.92772" lon="17.23617">
        <ele>43.961163</ele>
        <time>2020-10-08T09:09:23.890Z</time>
      </trkpt>
      <trkpt lat="61.9267" lon="17.2354">
        <ele>44.421917</ele>
        <time>2020-10-08T09:10:19.859Z</time>
      </trkpt>
      <trkpt lat="61.92499" lon="17.23806">
        <ele>43.755658</ele>
        <time>2020-10-08T09:11:16.856Z</time>
      </trkpt>
      <trkpt lat="61.9229" lon="17.24008">
        <ele>43.508408</ele>
        <time>2020-10-08T09:12:04.861Z</time>
      </trkpt>
      <trkpt lat="61.92093" lon="17.24125">
        <ele>45.665052</ele>
        <time>2020-10-08T09:12:45.881Z</time>
      </trkpt>
      <trkpt lat="61.91914" lon="17.24401">
        <ele>46.89049</ele>
        <time>2020-10-08T09:13:38.841Z</time>
      </trkpt>
      <trkpt lat="61.91818" lon="17.24814">
        <ele>46.801898</ele>
        <time>2020-10-08T09:14:25.868Z</time>
      </trkpt>
      <trkpt lat="61.91737" lon="17.2521">
        <ele>45.804231</ele>
        <time>2020-10-08T09:15:13.878Z</time>
      </trkpt>
      <trkpt lat="61.91606" lon="17.25593">
        <ele>44.100004</ele>
        <time>2020-10-08T09:16:05.871Z</time>
      </trkpt>
      <trkpt lat="61.91558" lon="17.26041">
        <ele>45.733181</ele>
        <time>2020-10-08T09:17:05.856Z</time>
      </trkpt>
      <trkpt lat="61.91392" lon="17.26336">
        <ele>46.33402</ele>
        <time>2020-10-08T09:17:59.876Z</time>
      </trkpt>
      <trkpt lat="61.91184" lon="17.26536">
        <ele>49.076696</ele>
        <time>2020-10-08T09:18:52.866Z</time>
      </trkpt>
      <trkpt lat="61.90957" lon="17.26677">
        <ele>53.882328</ele>
        <time>2020-10-08T09:19:50.863Z</time>
      </trkpt>
      <trkpt lat="61.90735" lon="17.26723">
        <ele>52.874477</ele>
        <time>2020-10-08T09:20:44.855Z</time>
      </trkpt>
      <trkpt lat="61.90496" lon="17.26847">
        <ele>46.360619</ele>
        <time>2020-10-08T09:21:30.877Z</time>
      </trkpt>
      <trkpt lat="61.90302" lon="17.2706">
        <ele>43.77608</ele>
        <time>2020-10-08T09:22:16.892Z</time>
      </trkpt>
      <trkpt lat="61.90125" lon="17.27339">
        <ele>49.831444</ele>
        <time>2020-10-08T09:23:16.892Z</time>
      </trkpt>
      <trkpt lat="61.89931" lon="17.2756">
        <ele>51.476554</ele>
        <time>2020-10-08T09:24:14.866Z</time>
      </trkpt>
      <trkpt lat="61.89737" lon="17.27893">
        <ele>49.010541</ele>
        <time>2020-10-08T09:25:12.851Z</time>
      </trkpt>
      <trkpt lat="61.89572" lon="17.28116">
        <ele>45.999113</ele>
        <time>2020-10-08T09:25:52.846Z</time>
      </trkpt>
      <trkpt lat="61.89395" lon="17.28373">
        <ele>44.601971</ele>
        <time>2020-10-08T09:26:39.861Z</time>
      </trkpt>
      <trkpt lat="61.89246" lon="17.28701">
        <ele>45.084988</ele>
        <time>2020-10-08T09:27:25.858Z</time>
      </trkpt>
      <trkpt lat="61.89079" lon="17.28941">
        <ele>43.935028</ele>
        <time>2020-10-08T09:28:05.852Z</time>
      </trkpt>
      <trkpt lat="61.88931" lon="17.2926">
        <ele>43.308865</ele>
        <time>2020-10-08T09:28:47.864Z</time>
      </trkpt>
      <trkpt lat="61.88824" lon="17.29626">
        <ele>45.533217</ele>
        <time>2020-10-08T09:29:27.876Z</time>
      </trkpt>
      <trkpt lat="61.88682" lon="17.29972">
        <ele>41.81428</ele>
        <time>2020-10-08T09:30:09.865Z</time>
      </trkpt>
      <trkpt lat="61.88523" lon="17.30338">
        <ele>31.935932</ele>
        <time>2020-10-08T09:30:49.876Z</time>
      </trkpt>
      <trkpt lat="61.88362" lon="17.30555">
        <ele>33.682506</ele>
        <time>2020-10-08T09:31:29.857Z</time>
      </trkpt>
      <trkpt lat="61.88145" lon="17.3068">
        <ele>35.506049</ele>
        <time>2020-10-08T09:32:21.846Z</time>
      </trkpt>
      <trkpt lat="61.87937" lon="17.3079">
        <ele>40.929725</ele>
        <time>2020-10-08T09:33:16.887Z</time>
      </trkpt>
      <trkpt lat="61.87741" lon="17.30967">
        <ele>37.41414</ele>
        <time>2020-10-08T09:33:56.883Z</time>
      </trkpt>
      <trkpt lat="61.87546" lon="17.31146">
        <ele>38.597427</ele>
        <time>2020-10-08T09:34:43.870Z</time>
      </trkpt>
      <trkpt lat="61.87353" lon="17.31401">
        <ele>39.219275</ele>
        <time>2020-10-08T09:35:37.911Z</time>
      </trkpt>
      <trkpt lat="61.87145" lon="17.31449">
        <ele>41.703387</ele>
        <time>2020-10-08T09:36:23.892Z</time>
      </trkpt>
      <trkpt lat="61.86966" lon="17.31538">
        <ele>40.126442</ele>
        <time>2020-10-08T09:37:19.876Z</time>
      </trkpt>
      <trkpt lat="61.86756" lon="17.31322">
        <ele>41.781154</ele>
        <time>2020-10-08T09:38:09.881Z</time>
      </trkpt>
      <trkpt lat="61.86542" lon="17.31237">
        <ele>35.753475</ele>
        <time>2020-10-08T09:38:49.863Z</time>
      </trkpt>
      <trkpt lat="61.86314" lon="17.31196">
        <ele>34.220494</ele>
        <time>2020-10-08T09:39:29.870Z</time>
      </trkpt>
      <trkpt lat="61.8612" lon="17.31145">
        <ele>39.88507</ele>
        <time>2020-10-08T09:40:12.879Z</time>
      </trkpt>
      <trkpt lat="61.85917" lon="17.30915">
        <ele>40.97069</ele>
        <time>2020-10-08T09:41:05.871Z</time>
      </trkpt>
      <trkpt lat="61.85753" lon="17.30668">
        <ele>39.736161</ele>
        <time>2020-10-08T09:41:47.912Z</time>
      </trkpt>
      <trkpt lat="61.85624" lon="17.30334">
        <ele>38.264012</ele>
        <time>2020-10-08T09:42:43.881Z</time>
      </trkpt>
      <trkpt lat="61.85532" lon="17.29881">
        <ele>38.106325</ele>
        <time>2020-10-08T09:43:23.866Z</time>
      </trkpt>
      <trkpt lat="61.85521" lon="17.29427">
        <ele>36.530226</ele>
        <time>2020-10-08T09:44:08.880Z</time>
      </trkpt>
      <trkpt lat="61.85488" lon="17.29011">
        <ele>38.758964</ele>
        <time>2020-10-08T09:44:50.853Z</time>
      </trkpt>
      <trkpt lat="61.85417" lon="17.28586">
        <ele>44.288729</ele>
        <time>2020-10-08T09:45:47.848Z</time>
      </trkpt>
      <trkpt lat="61.85244" lon="17.28299">
        <ele>43.351103</ele>
        <time>2020-10-08T09:46:45.894Z</time>
      </trkpt>
      <trkpt lat="61.85092" lon="17.27993">
        <ele>38.733266</ele>
        <time>2020-10-08T09:47:26.852Z</time>
      </trkpt>
      <trkpt lat="61.84923" lon="17.27727">
        <ele>36.92228</ele>
        <time>2020-10-08T09:48:23.906Z</time>
      </trkpt>
      <trkpt lat="61.84765" lon="17.27423">
        <ele>41.114002</ele>
        <time>2020-10-08T09:49:17.878Z</time>
      </trkpt>
      <trkpt lat="61.84629" lon="17.27048">
        <ele>45.083209</ele>
        <time>2020-10-08T09:50:08.868Z</time>
      </trkpt>
      <trkpt lat="61.84487" lon="17.26673">
        <ele>44.821618</ele>
        <time>2020-10-08T09:51:11.868Z</time>
      </trkpt>
      <trkpt lat="61.84319" lon="17.26441">
        <ele>52.422364</ele>
        <time>2020-10-08T09:52:07.894Z</time>
      </trkpt>
      <trkpt lat="61.84157" lon="17.26202">
        <ele>66.91043</ele>
        <time>2020-10-08T09:53:44.866Z</time>
      </trkpt>
      <trkpt lat="61.83954" lon="17.26168">
        <ele>80.136068</ele>
        <time>2020-10-08T09:55:12.858Z</time>
      </trkpt>
      <trkpt lat="61.83754" lon="17.26349">
        <ele>72.771523</ele>
        <time>2020-10-08T09:56:24.854Z</time>
      </trkpt>
      <trkpt lat="61.83546" lon="17.2648">
        <ele>67.374628</ele>
        <time>2020-10-08T09:57:17.863Z</time>
      </trkpt>
      <trkpt lat="61.83424" lon="17.26087">
        <ele>59.575821</ele>
        <time>2020-10-08T09:57:57.849Z</time>
      </trkpt>
      <trkpt lat="61.83363" lon="17.25675">
        <ele>47.591018</ele>
        <time>2020-10-08T09:58:17.852Z</time>
      </trkpt>
      <trkpt lat="61.8321" lon="17.25414">
        <ele>36.162669</ele>
        <time>2020-10-08T09:58:37.852Z</time>
      </trkpt>
      <trkpt lat="61.8307" lon="17.25033">
        <ele>36.01383</ele>
        <time>2020-10-08T09:59:17.861Z</time>
      </trkpt>
      <trkpt lat="61.83081" lon="17.24619">
        <ele>47.232402</ele>
        <time>2020-10-08T10:00:50.874Z</time>
      </trkpt>
      <trkpt lat="61.83034" lon="17.24213">
        <ele>55.317916</ele>
        <time>2020-10-08T10:02:29.888Z</time>
      </trkpt>
      <trkpt lat="61.82973" lon="17.23836">
        <ele>58.91602</ele>
        <time>2020-10-08T10:03:45.883Z</time>
      </trkpt>
      <trkpt lat="61.83001" lon="17.23379">
        <ele>56.66428</ele>
        <time>2020-10-08T10:04:33.859Z</time>
      </trkpt>
      <trkpt lat="61.82951" lon="17.22966">
        <ele>65.310075</ele>
        <time>2020-10-08T10:05:48.871Z</time>
      </trkpt>
      <trkpt lat="61.82764" lon="17.22792">
        <ele>66.991654</ele>
        <time>2020-10-08T10:06:52.853Z</time>
      </trkpt>
      <trkpt lat="61.82549" lon="17.22746">
        <ele>69.505297</ele>
        <time>2020-10-08T10:07:47.848Z</time>
      </trkpt>
      <trkpt lat="61.8236" lon="17.2251">
        <ele>69.967543</ele>
        <time>2020-10-08T10:08:39.863Z</time>
      </trkpt>
      <trkpt lat="61.82233" lon="17.22118">
        <ele>69.017628</ele>
        <time>2020-10-08T10:09:38.858Z</time>
      </trkpt>
      <trkpt lat="61.82217" lon="17.21674">
        <ele>68.29393</ele>
        <time>2020-10-08T10:10:18.862Z</time>
      </trkpt>
      <trkpt lat="61.82116" lon="17.21178">
        <ele>61.854034</ele>
        <time>2020-10-08T10:10:55.863Z</time>
      </trkpt>
      <trkpt lat="61.81958" lon="17.20885">
        <ele>49.625169</ele>
        <time>2020-10-08T10:11:15.867Z</time>
      </trkpt>
      <trkpt lat="61.81753" lon="17.20658">
        <ele>41.582676</ele>
        <time>2020-10-08T10:11:47.856Z</time>
      </trkpt>
      <trkpt lat="61.81505" lon="17.20716">
        <ele>36.663281</ele>
        <time>2020-10-08T10:12:27.856Z</time>
      </trkpt>
      <trkpt lat="61.81266" lon="17.20663">
        <ele>35.447671</ele>
        <time>2020-10-08T10:13:15.857Z</time>
      </trkpt>
      <trkpt lat="61.81053" lon="17.20653">
        <ele>47.738849</ele>
        <time>2020-10-08T10:14:26.875Z</time>
      </trkpt>
      <trkpt lat="61.80881" lon="17.20896">
        <ele>53.304933</ele>
        <time>2020-10-08T10:15:33.862Z</time>
      </trkpt>
      <trkpt lat="61.80662" lon="17.20949">
        <ele>42.105972</ele>
        <time>2020-10-08T10:16:16.905Z</time>
      </trkpt>
      <trkpt lat="61.80479" lon="17.21048">
        <ele>39.563236</ele>
        <time>2020-10-08T10:17:05.866Z</time>
      </trkpt>
      <trkpt lat="61.80355" lon="17.21475">
        <ele>37.430507</ele>
        <time>2020-10-08T10:17:45.890Z</time>
      </trkpt>
      <trkpt lat="61.80168" lon="17.21771">
        <ele>37.558316</ele>
        <time>2020-10-08T10:18:31.872Z</time>
      </trkpt>
      <trkpt lat="61.8005" lon="17.22153">
        <ele>47.865551</ele>
        <time>2020-10-08T10:19:52.881Z</time>
      </trkpt>
      <trkpt lat="61.79881" lon="17.22392">
        <ele>64.902642</ele>
        <time>2020-10-08T10:21:25.865Z</time>
      </trkpt>
      <trkpt lat="61.79694" lon="17.22381">
        <ele>69.782903</ele>
        <time>2020-10-08T10:38:33.888Z</time>
      </trkpt>
      <trkpt lat="61.79484" lon="17.22345">
        <ele>70.295791</ele>
        <time>2020-10-08T10:39:44.859Z</time>
      </trkpt>
      <trkpt lat="61.79268" lon="17.22493">
        <ele>59.395169</ele>
        <time>2020-10-08T10:40:28.870Z</time>
      </trkpt>
      <trkpt lat="61.79084" lon="17.2287">
        <ele>45.13745</ele>
        <time>2020-10-08T10:41:04.887Z</time>
      </trkpt>
      <trkpt lat="61.79028" lon="17.23302">
        <ele>41.014818</ele>
        <time>2020-10-08T10:41:36.875Z</time>
      </trkpt>
      <trkpt lat="61.78984" lon="17.23777">
        <ele>40.864029</ele>
        <time>2020-10-08T10:42:23.878Z</time>
      </trkpt>
      <trkpt lat="61.78938" lon="17.24241">
        <ele>42.011097</ele>
        <time>2020-10-08T10:43:05.877Z</time>
      </trkpt>
      <trkpt lat="61.78777" lon="17.24645">
        <ele>38.723034</ele>
        <time>2020-10-08T10:43:50.897Z</time>
      </trkpt>
      <trkpt lat="61.78597" lon="17.24928">
        <ele>35.747162</ele>
        <time>2020-10-08T10:44:38.883Z</time>
      </trkpt>
      <trkpt lat="61.78366" lon="17.24767">
        <ele>34.487762</ele>
        <time>2020-10-08T10:45:29.886Z</time>
      </trkpt>
      <trkpt lat="61.78158" lon="17.24636">
        <ele>32.390413</ele>
        <time>2020-10-08T10:46:23.875Z</time>
      </trkpt>
      <trkpt lat="61.77943" lon="17.24517">
        <ele>32.698421</ele>
        <time>2020-10-08T10:47:14.874Z</time>
      </trkpt>
      <trkpt lat="61.77748" lon="17.24343">
        <ele>39.777789</ele>
        <time>2020-10-08T10:48:19.882Z</time>
      </trkpt>
      <trkpt lat="61.77587" lon="17.24065">
        <ele>45.341829</ele>
        <time>2020-10-08T10:49:19.879Z</time>
      </trkpt>
      <trkpt lat="61.77388" lon="17.23885">
        <ele>43.37916</ele>
        <time>2020-10-08T10:50:18.888Z</time>
      </trkpt>
      <trkpt lat="61.77248" lon="17.23568">
        <ele>39.738947</ele>
        <time>2020-10-08T10:51:01.878Z</time>
      </trkpt>
      <trkpt lat="61.7706" lon="17.23302">
        <ele>32.593048</ele>
        <time>2020-10-08T10:51:41.876Z</time>
      </trkpt>
      <trkpt lat="61.76875" lon="17.23074">
        <ele>33.14623</ele>
        <time>2020-10-08T10:52:29.877Z</time>
      </trkpt>
      <trkpt lat="61.76691" lon="17.22874">
        <ele>45.857172</ele>
        <time>2020-10-08T10:53:52.919Z</time>
      </trkpt>
      <trkpt lat="61.76529" lon="17.22627">
        <ele>57.70359</ele>
        <time>2020-10-08T10:55:42.866Z</time>
      </trkpt>
      <trkpt lat="61.76404" lon="17.2231">
        <ele>58.060644</ele>
        <time>2020-10-08T10:56:41.885Z</time>
      </trkpt>
      <trkpt lat="61.76387" lon="17.21878">
        <ele>59.294776</ele>
        <time>2020-10-08T10:57:52.897Z</time>
      </trkpt>
      <trkpt lat="61.76378" lon="17.21438">
        <ele>64.936554</ele>
        <time>2020-10-08T10:59:05.881Z</time>
      </trkpt>
      <trkpt lat="61.76386" lon="17.21015">
        <ele>68.994728</ele>
        <time>2020-10-08T11:00:10.885Z</time>
      </trkpt>
      <trkpt lat="61.76398" lon="17.20559">
        <ele>70.022245</ele>
        <time>2020-10-08T11:01:11.899Z</time>
      </trkpt>
      <trkpt lat="61.76426" lon="17.20132">
        <ele>70.25761</ele>
        <time>2020-10-08T11:02:00.879Z</time>
      </trkpt>
      <trkpt lat="61.76471" lon="17.1968">
        <ele>69.803781</ele>
        <time>2020-10-08T11:02:49.889Z</time>
      </trkpt>
      <trkpt lat="61.76514" lon="17.19186">
        <ele>65.1989</ele>
        <time>2020-10-08T11:03:22.916Z</time>
      </trkpt>
      <trkpt lat="61.76441" lon="17.18666">
        <ele>57.213848</ele>
        <time>2020-10-08T11:05:15.879Z</time>
      </trkpt>
      <trkpt lat="61.76466" lon="17.18247">
        <ele>57.754197</ele>
        <time>2020-10-08T11:06:23.873Z</time>
      </trkpt>
      <trkpt lat="61.76504" lon="17.17814">
        <ele>56.786937</ele>
        <time>2020-10-08T11:07:23.880Z</time>
      </trkpt>
      <trkpt lat="61.76586" lon="17.17417">
        <ele>60.686927</ele>
        <time>2020-10-08T11:08:41.880Z</time>
      </trkpt>
      <trkpt lat="61.76528" lon="17.17011">
        <ele>65.428287</ele>
        <time>2020-10-08T11:09:53.902Z</time>
      </trkpt>
      <trkpt lat="61.76576" lon="17.16604">
        <ele>75.095128</ele>
        <time>2020-10-08T11:11:41.902Z</time>
      </trkpt>
      <trkpt lat="61.76694" lon="17.1631">
        <ele>83.798914</ele>
        <time>2020-10-08T11:13:35.884Z</time>
      </trkpt>
      <trkpt lat="61.76715" lon="17.15886">
        <ele>91.223469</ele>
        <time>2020-10-08T11:15:14.896Z</time>
      </trkpt>
      <trkpt lat="61.76745" lon="17.15447">
        <ele>103.654059</ele>
        <time>2020-10-08T11:16:45.886Z</time>
      </trkpt>
      <trkpt lat="61.76754" lon="17.15">
        <ele>102.481615</ele>
        <time>2020-10-08T11:17:52.872Z</time>
      </trkpt>
      <trkpt lat="61.76638" lon="17.14723">
        <ele>96.96412</ele>
        <time>2020-10-08T11:18:51.906Z</time>
      </trkpt>
      <trkpt lat="61.76531" lon="17.14456">
        <ele>85.177638</ele>
        <time>2020-10-08T11:19:40.873Z</time>
      </trkpt>
      <trkpt lat="61.76507" lon="17.14014">
        <ele>79.82252</ele>
        <time>2020-10-08T11:20:41.874Z</time>
      </trkpt>
      <trkpt lat="61.7649" lon="17.13578">
        <ele>71.239359</ele>
        <time>2020-10-08T11:21:29.878Z</time>
      </trkpt>
      <trkpt lat="61.76461" lon="17.13125">
        <ele>57.869301</ele>
        <time>2020-10-08T11:22:16.882Z</time>
      </trkpt>
      <trkpt lat="61.76311" lon="17.12835">
        <ele>65.895301</ele>
        <time>2020-10-08T11:23:50.880Z</time>
      </trkpt>
      <trkpt lat="61.76171" lon="17.12489">
        <ele>66.077897</ele>
        <time>2020-10-08T11:25:11.884Z</time>
      </trkpt>
      <trkpt lat="61.76002" lon="17.12206">
        <ele>56.091218</ele>
        <time>2020-10-08T11:26:03.890Z</time>
      </trkpt>
      <trkpt lat="61.75766" lon="17.12157">
        <ele>49.436513</ele>
        <time>2020-10-08T11:27:03.896Z</time>
      </trkpt>
      <trkpt lat="61.75555" lon="17.12109">
        <ele>56.928814</ele>
        <time>2020-10-08T11:28:15.889Z</time>
      </trkpt>
      <trkpt lat="61.75353" lon="17.1205">
        <ele>68.922937</ele>
        <time>2020-10-08T11:29:35.881Z</time>
      </trkpt>
      <trkpt lat="61.75182" lon="17.12254">
        <ele>72.989436</ele>
        <time>2020-10-08T11:30:39.905Z</time>
      </trkpt>
      <trkpt lat="61.75049" lon="17.12528">
        <ele>72.972531</ele>
        <time>2020-10-08T11:31:41.945Z</time>
      </trkpt>
      <trkpt lat="61.74844" lon="17.12581">
        <ele>63.983034</ele>
        <time>2020-10-08T11:32:25.874Z</time>
      </trkpt>
      <trkpt lat="61.7464" lon="17.1264">
        <ele>59.029258</ele>
        <time>2020-10-08T11:33:07.885Z</time>
      </trkpt>
      <trkpt lat="61.74436" lon="17.1248">
        <ele>60.575182</ele>
        <time>2020-10-08T11:34:00.907Z</time>
      </trkpt>
      <trkpt lat="61.74253" lon="17.12212">
        <ele>64.555176</ele>
        <time>2020-10-08T11:34:54.893Z</time>
      </trkpt>
      <trkpt lat="61.74077" lon="17.12023">
        <ele>67.245457</ele>
        <time>2020-10-08T11:35:58.892Z</time>
      </trkpt>
      <trkpt lat="61.73951" lon="17.11809">
        <ele>52.560877</ele>
        <time>2020-10-08T11:36:39.873Z</time>
      </trkpt>
      <trkpt lat="61.73963" lon="17.1124">
        <ele>43.513881</ele>
        <time>2020-10-08T11:37:19.910Z</time>
      </trkpt>
      <trkpt lat="61.73945" lon="17.10778">
        <ele>43.936335</ele>
        <time>2020-10-08T11:37:59.915Z</time>
      </trkpt>
      <trkpt lat="61.73828" lon="17.10495">
        <ele>43.765035</ele>
        <time>2020-10-08T11:39:00.886Z</time>
      </trkpt>
      <trkpt lat="61.73635" lon="17.1027">
        <ele>43.359029</ele>
        <time>2020-10-08T11:39:49.892Z</time>
      </trkpt>
      <trkpt lat="61.73444" lon="17.10174">
        <ele>41.979948</ele>
        <time>2020-10-08T11:40:32.896Z</time>
      </trkpt>
      <trkpt lat="61.73276" lon="17.10388">
        <ele>37.986419</ele>
        <time>2020-10-08T11:41:37.884Z</time>
      </trkpt>
      <trkpt lat="61.7304" lon="17.10519">
        <ele>34.273833</ele>
        <time>2020-10-08T11:42:37.886Z</time>
      </trkpt>
      <trkpt lat="61.72864" lon="17.10703">
        <ele>39.851159</ele>
        <time>2020-10-08T11:43:40.922Z</time>
      </trkpt>
      <trkpt lat="61.72701" lon="17.1079">
        <ele>45.662339</ele>
        <time>2020-10-08T11:49:09.921Z</time>
      </trkpt>
      <trkpt lat="61.72488" lon="17.1075">
        <ele>40.187039</ele>
        <time>2020-10-08T11:50:10.892Z</time>
      </trkpt>
      <trkpt lat="61.72302" lon="17.10575">
        <ele>49.429372</ele>
        <time>2020-10-08T11:51:41.897Z</time>
      </trkpt>
      <trkpt lat="61.72148" lon="17.10464">
        <ele>51.227381</ele>
        <time>2020-10-08T11:53:00.886Z</time>
      </trkpt>
      <trkpt lat="61.7193" lon="17.10198">
        <ele>41.694473</ele>
        <time>2020-10-08T11:53:50.940Z</time>
      </trkpt>
      <trkpt lat="61.71919" lon="17.09789">
        <ele>43.715693</ele>
        <time>2020-10-08T11:55:02.874Z</time>
      </trkpt>
      <trkpt lat="61.7173" lon="17.09568">
        <ele>43.72307</ele>
        <time>2020-10-08T12:00:00.884Z</time>
      </trkpt>
      <trkpt lat="61.71587" lon="17.09278">
        <ele>42.495098</ele>
        <time>2020-10-08T12:01:02.890Z</time>
      </trkpt>
      <trkpt lat="61.7144" lon="17.0895">
        <ele>42.585466</ele>
        <time>2020-10-08T12:01:51.883Z</time>
      </trkpt>
      <trkpt lat="61.71308" lon="17.08575">
        <ele>39.703691</ele>
        <time>2020-10-08T12:02:48.908Z</time>
      </trkpt>
      <trkpt lat="61.71214" lon="17.08194">
        <ele>43.362724</ele>
        <time>2020-10-08T12:03:56.884Z</time>
      </trkpt>
      <trkpt lat="61.71195" lon="17.07768">
        <ele>49.856984</ele>
        <time>2020-10-08T12:05:15.915Z</time>
      </trkpt>
      <trkpt lat="61.71119" lon="17.07373">
        <ele>50.525014</ele>
        <time>2020-10-08T12:06:25.893Z</time>
      </trkpt>
      <trkpt lat="61.71056" lon="17.07016">
        <ele>61.949407</ele>
        <time>2020-10-08T12:07:35.885Z</time>
      </trkpt>
      <trkpt lat="61.71105" lon="17.06706">
        <ele>68.444827</ele>
        <time>2020-10-08T12:09:18.902Z</time>
      </trkpt>
      <trkpt lat="61.71278" lon="17.06422">
        <ele>68.318304</ele>
        <time>2020-10-08T12:12:01.941Z</time>
      </trkpt>
      <trkpt lat="61.7147" lon="17.06285">
        <ele>67.971818</ele>
        <time>2020-10-08T12:13:06.897Z</time>
      </trkpt>
      <trkpt lat="61.71491" lon="17.05863">
        <ele>67.128969</ele>
        <time>2020-10-08T12:14:06.912Z</time>
      </trkpt>
      <trkpt lat="61.71472" lon="17.05455">
        <ele>76.042114</ele>
        <time>2020-10-08T12:15:06.898Z</time>
      </trkpt>
      <trkpt lat="61.7145" lon="17.05046">
        <ele>76.688875</ele>
        <time>2020-10-08T12:16:06.888Z</time>
      </trkpt>
      <trkpt lat="61.71424" lon="17.04591">
        <ele>75.473679</ele>
        <time>2020-10-08T12:17:10.897Z</time>
      </trkpt>
      <trkpt lat="61.71461" lon="17.04116">
        <ele>76.667762</ele>
        <time>2020-10-08T12:18:04.892Z</time>
      </trkpt>
      <trkpt lat="61.71542" lon="17.03725">
        <ele>75.409149</ele>
        <time>2020-10-08T12:18:45.898Z</time>
      </trkpt>
      <trkpt lat="61.71672" lon="17.03297">
        <ele>77.826544</ele>
        <time>2020-10-08T12:19:45.893Z</time>
      </trkpt>
      <trkpt lat="61.71791" lon="17.02915">
        <ele>82.262489</ele>
        <time>2020-10-08T12:20:45.906Z</time>
      </trkpt>
      <trkpt lat="61.71906" lon="17.0252">
        <ele>86.288934</ele>
        <time>2020-10-08T12:21:45.940Z</time>
      </trkpt>
      <trkpt lat="61.72016" lon="17.02106">
        <ele>88.622965</ele>
        <time>2020-10-08T12:22:45.897Z</time>
      </trkpt>
      <trkpt lat="61.72127" lon="17.01672">
        <ele>92.637972</ele>
        <time>2020-10-08T12:23:45.913Z</time>
      </trkpt>
      <trkpt lat="61.72233" lon="17.01239">
        <ele>96.748713</ele>
        <time>2020-10-08T12:24:45.907Z</time>
      </trkpt>
      <trkpt lat="61.72306" lon="17.0078">
        <ele>103.287195</ele>
        <time>2020-10-08T12:25:41.895Z</time>
      </trkpt>
      <trkpt lat="61.72309" lon="17.00359">
        <ele>102.602058</ele>
        <time>2020-10-08T12:26:24.884Z</time>
      </trkpt>
      <trkpt lat="61.72278" lon="16.99931">
        <ele>96.555929</ele>
        <time>2020-10-08T12:27:07.887Z</time>
      </trkpt>
      <trkpt lat="61.72258" lon="16.99411">
        <ele>94.800892</ele>
        <time>2020-10-08T12:27:47.892Z</time>
      </trkpt>
      <trkpt lat="61.72296" lon="16.9882">
        <ele>87.377596</ele>
        <time>2020-10-08T12:28:20.894Z</time>
      </trkpt>
      <trkpt lat="61.72403" lon="16.98372">
        <ele>81.002566</ele>
        <time>2020-10-08T12:28:58.897Z</time>
      </trkpt>
      <trkpt lat="61.7227" lon="16.97994">
        <ele>86.477272</ele>
        <time>2020-10-08T12:29:58.926Z</time>
      </trkpt>
      <trkpt lat="61.72089" lon="16.97774">
        <ele>88.100012</ele>
        <time>2020-10-08T12:31:14.916Z</time>
      </trkpt>
      <trkpt lat="61.71987" lon="16.97353">
        <ele>84.252752</ele>
        <time>2020-10-08T12:32:01.892Z</time>
      </trkpt>
      <trkpt lat="61.71851" lon="16.96956">
        <ele>79.782531</ele>
        <time>2020-10-08T12:32:46.886Z</time>
      </trkpt>
      <trkpt lat="61.71665" lon="16.96755">
        <ele>73.117223</ele>
        <time>2020-10-08T12:33:29.946Z</time>
      </trkpt>
      <trkpt lat="61.71464" lon="16.96525">
        <ele>70.619661</ele>
        <time>2020-10-08T12:34:09.893Z</time>
      </trkpt>
      <trkpt lat="61.71293" lon="16.96254">
        <ele>77.863621</ele>
        <time>2020-10-08T12:35:13.905Z</time>
      </trkpt>
      <trkpt lat="61.7123" lon="16.95825">
        <ele>75.21525</ele>
        <time>2020-10-08T12:36:03.890Z</time>
      </trkpt>
      <trkpt lat="61.71063" lon="16.95453">
        <ele>69.277666</ele>
        <time>2020-10-08T12:36:48.909Z</time>
      </trkpt>
      <trkpt lat="61.70957" lon="16.9507">
        <ele>71.47381</ele>
        <time>2020-10-08T12:37:38.892Z</time>
      </trkpt>
      <trkpt lat="61.70781" lon="16.9479">
        <ele>74.192992</ele>
        <time>2020-10-08T12:38:38.890Z</time>
      </trkpt>
      <trkpt lat="61.70609" lon="16.9458">
        <ele>82.374658</ele>
        <time>2020-10-08T12:40:10.897Z</time>
      </trkpt>
      <trkpt lat="61.70408" lon="16.94285">
        <ele>79.428749</ele>
        <time>2020-10-08T12:41:03.901Z</time>
      </trkpt>
      <trkpt lat="61.70292" lon="16.93934">
        <ele>83.777749</ele>
        <time>2020-10-08T12:42:15.933Z</time>
      </trkpt>
      <trkpt lat="61.70142" lon="16.93686">
        <ele>91.513976</ele>
        <time>2020-10-08T12:43:44.909Z</time>
      </trkpt>
      <trkpt lat="61.69987" lon="16.93273">
        <ele>85.155026</ele>
        <time>2020-10-08T12:44:21.906Z</time>
      </trkpt>
      <trkpt lat="61.6977" lon="16.93156">
        <ele>69.263653</ele>
        <time>2020-10-08T12:44:52.951Z</time>
      </trkpt>
      <trkpt lat="61.69564" lon="16.93168">
        <ele>64.472538</ele>
        <time>2020-10-08T12:45:32.912Z</time>
      </trkpt>
      <trkpt lat="61.69417" lon="16.92864">
        <ele>67.267715</ele>
        <time>2020-10-08T12:46:12.889Z</time>
      </trkpt>
      <trkpt lat="61.69331" lon="16.92474">
        <ele>74.004202</ele>
        <time>2020-10-08T12:47:49.908Z</time>
      </trkpt>
      <trkpt lat="61.69136" lon="16.92307">
        <ele>83.852029</ele>
        <time>2020-10-08T12:49:12.928Z</time>
      </trkpt>
      <trkpt lat="61.68931" lon="16.92194">
        <ele>89.536859</ele>
        <time>2020-10-08T12:50:20.893Z</time>
      </trkpt>
      <trkpt lat="61.68721" lon="16.92207">
        <ele>92.620532</ele>
        <time>2020-10-08T12:51:16.908Z</time>
      </trkpt>
      <trkpt lat="61.68498" lon="16.92373">
        <ele>86.506923</ele>
        <time>2020-10-08T12:52:07.903Z</time>
      </trkpt>
      <trkpt lat="61.68277" lon="16.92462">
        <ele>77.573574</ele>
        <time>2020-10-08T12:52:48.973Z</time>
      </trkpt>
      <trkpt lat="61.68051" lon="16.92522">
        <ele>79.777264</ele>
        <time>2020-10-08T12:53:34.907Z</time>
      </trkpt>
      <trkpt lat="61.67814" lon="16.92376">
        <ele>73.997888</ele>
        <time>2020-10-08T12:54:10.916Z</time>
      </trkpt>
      <trkpt lat="61.67603" lon="16.92412">
        <ele>71.358968</ele>
        <time>2020-10-08T12:55:17.889Z</time>
      </trkpt>
      <trkpt lat="61.6737" lon="16.92233">
        <ele>71.557359</ele>
        <time>2020-10-08T12:56:02.944Z</time>
      </trkpt>
      <trkpt lat="61.67176" lon="16.9221">
        <ele>74.173949</ele>
        <time>2020-10-08T12:57:08.891Z</time>
      </trkpt>
      <trkpt lat="61.66949" lon="16.92359">
        <ele>68.159705</ele>
        <time>2020-10-08T12:57:47.899Z</time>
      </trkpt>
      <trkpt lat="61.66705" lon="16.92514">
        <ele>60.146654</ele>
        <time>2020-10-08T12:58:27.897Z</time>
      </trkpt>
      <trkpt lat="61.6651" lon="16.92641">
        <ele>62.934887</ele>
        <time>2020-10-08T12:59:13.908Z</time>
      </trkpt>
      <trkpt lat="61.66295" lon="16.92629">
        <ele>66.480668</ele>
        <time>2020-10-08T13:00:09.929Z</time>
      </trkpt>
      <trkpt lat="61.66055" lon="16.92558">
        <ele>61.536428</ele>
        <time>2020-10-08T13:01:01.912Z</time>
      </trkpt>
      <trkpt lat="61.65858" lon="16.92602">
        <ele>60.302467</ele>
        <time>2020-10-08T13:01:41.893Z</time>
      </trkpt>
      <trkpt lat="61.65669" lon="16.92567">
        <ele>75.322362</ele>
        <time>2020-10-08T13:02:59.903Z</time>
      </trkpt>
      <trkpt lat="61.65461" lon="16.92568">
        <ele>81.392609</ele>
        <time>2020-10-08T13:04:25.905Z</time>
      </trkpt>
      <trkpt lat="61.65265" lon="16.92456">
        <ele>82.469196</ele>
        <time>2020-10-08T13:05:23.903Z</time>
      </trkpt>
      <trkpt lat="61.65053" lon="16.92281">
        <ele>92.457186</ele>
        <time>2020-10-08T13:06:16.896Z</time>
      </trkpt>
      <trkpt lat="61.64851" lon="16.92083">
        <ele>92.294632</ele>
        <time>2020-10-08T13:22:48.912Z</time>
      </trkpt>
      <trkpt lat="61.64673" lon="16.91946">
        <ele>102.991414</ele>
        <time>2020-10-08T13:24:55.905Z</time>
      </trkpt>
      <trkpt lat="61.64503" lon="16.9177">
        <ele>111.665468</ele>
        <time>2020-10-08T13:26:50.975Z</time>
      </trkpt>
      <trkpt lat="61.64317" lon="16.91648">
        <ele>119.806314</ele>
        <time>2020-10-08T13:28:32.931Z</time>
      </trkpt>
      <trkpt lat="61.64157" lon="16.91393">
        <ele>130.139519</ele>
        <time>2020-10-08T13:30:05.917Z</time>
      </trkpt>
      <trkpt lat="61.64004" lon="16.91121">
        <ele>136.342647</ele>
        <time>2020-10-08T13:31:24.907Z</time>
      </trkpt>
      <trkpt lat="61.63788" lon="16.90727">
        <ele>125.111833</ele>
        <time>2020-10-08T13:32:02.950Z</time>
      </trkpt>
      <trkpt lat="61.63583" lon="16.90737">
        <ele>124.447696</ele>
        <time>2020-10-08T13:32:50.898Z</time>
      </trkpt>
      <trkpt lat="61.63384" lon="16.9092">
        <ele>110.773536</ele>
        <time>2020-10-08T13:33:16.925Z</time>
      </trkpt>
      <trkpt lat="61.63169" lon="16.90798">
        <ele>110.988804</ele>
        <time>2020-10-08T13:34:14.911Z</time>
      </trkpt>
      <trkpt lat="61.62952" lon="16.90673">
        <ele>126.318733</ele>
        <time>2020-10-08T13:35:16.901Z</time>
      </trkpt>
      <trkpt lat="61.62758" lon="16.9086">
        <ele>131.204512</ele>
        <time>2020-10-08T13:36:14.923Z</time>
      </trkpt>
      <trkpt lat="61.6256" lon="16.91074">
        <ele>129.441131</ele>
        <time>2020-10-08T13:37:08.941Z</time>
      </trkpt>
      <trkpt lat="61.62372" lon="16.91055">
        <ele>134.23385</ele>
        <time>2020-10-08T13:38:23.913Z</time>
      </trkpt>
      <trkpt lat="61.62125" lon="16.90914">
        <ele>121.5043</ele>
        <time>2020-10-08T13:39:08.949Z</time>
      </trkpt>
      <trkpt lat="61.61903" lon="16.90942">
        <ele>111.771654</ele>
        <time>2020-10-08T13:39:51.915Z</time>
      </trkpt>
      <trkpt lat="61.61653" lon="16.90802">
        <ele>99.294787</ele>
        <time>2020-10-08T13:40:21.927Z</time>
      </trkpt>
      <trkpt lat="61.61426" lon="16.91">
        <ele>88.268293</ele>
        <time>2020-10-08T13:41:06.908Z</time>
      </trkpt>
      <trkpt lat="61.6127" lon="16.91229">
        <ele>89.229757</ele>
        <time>2020-10-08T13:41:49.895Z</time>
      </trkpt>
      <trkpt lat="61.61122" lon="16.91541">
        <ele>89.007535</ele>
        <time>2020-10-08T13:42:29.916Z</time>
      </trkpt>
      <trkpt lat="61.60968" lon="16.91235">
        <ele>92.117728</ele>
        <time>2020-10-08T13:43:31.913Z</time>
      </trkpt>
      <trkpt lat="61.60786" lon="16.91039">
        <ele>99.103222</ele>
        <time>2020-10-08T13:44:35.944Z</time>
      </trkpt>
      <trkpt lat="61.60595" lon="16.90932">
        <ele>111.733306</ele>
        <time>2020-10-08T13:45:53.918Z</time>
      </trkpt>
      <trkpt lat="61.60397" lon="16.90953">
        <ele>97.584065</ele>
        <time>2020-10-08T13:46:27.904Z</time>
      </trkpt>
      <trkpt lat="61.60185" lon="16.90864">
        <ele>92.936877</ele>
        <time>2020-10-08T13:47:34.907Z</time>
      </trkpt>
      <trkpt lat="61.59963" lon="16.91082">
        <ele>98.341357</ele>
        <time>2020-10-08T13:50:16.942Z</time>
      </trkpt>
      <trkpt lat="61.59796" lon="16.91356">
        <ele>90.570684</ele>
        <time>2020-10-08T13:51:10.911Z</time>
      </trkpt>
      <trkpt lat="61.59642" lon="16.91665">
        <ele>91.130002</ele>
        <time>2020-10-08T13:51:57.907Z</time>
      </trkpt>
      <trkpt lat="61.59556" lon="16.92037">
        <ele>92.072905</ele>
        <time>2020-10-08T13:52:56.916Z</time>
      </trkpt>
      <trkpt lat="61.59388" lon="16.92254">
        <ele>93.881082</ele>
        <time>2020-10-08T13:53:56.939Z</time>
      </trkpt>
      <trkpt lat="61.5923" lon="16.92386">
        <ele>91.23702</ele>
        <time>2020-10-08T13:54:45.927Z</time>
      </trkpt>
      <trkpt lat="61.59162" lon="16.92848">
        <ele>75.098977</ele>
        <time>2020-10-08T13:55:29.908Z</time>
      </trkpt>
      <trkpt lat="61.5924" lon="16.93253">
        <ele>74.102628</ele>
        <time>2020-10-08T13:56:25.926Z</time>
      </trkpt>
      <trkpt lat="61.59099" lon="16.93427">
        <ele>75.003745</ele>
        <time>2020-10-08T13:57:26.923Z</time>
      </trkpt>
      <trkpt lat="61.58866" lon="16.93509">
        <ele>74.053737</ele>
        <time>2020-10-08T13:58:32.923Z</time>
      </trkpt>
      <trkpt lat="61.58719" lon="16.93747">
        <ele>89.854487</ele>
        <time>2020-10-08T14:00:30.909Z</time>
      </trkpt>
      <trkpt lat="61.58558" lon="16.93939">
        <ele>110.758369</ele>
        <time>2020-10-08T14:03:01.963Z</time>
      </trkpt>
      <trkpt lat="61.58427" lon="16.94247">
        <ele>121.799271</ele>
        <time>2020-10-08T14:04:25.924Z</time>
      </trkpt>
      <trkpt lat="61.58346" lon="16.94636">
        <ele>120.319242</ele>
        <time>2020-10-08T14:05:28.912Z</time>
      </trkpt>
      <trkpt lat="61.58171" lon="16.94892">
        <ele>116.615827</ele>
        <time>2020-10-08T14:06:25.929Z</time>
      </trkpt>
      <trkpt lat="61.58076" lon="16.95299">
        <ele>113.429726</ele>
        <time>2020-10-08T14:07:04.917Z</time>
      </trkpt>
      <trkpt lat="61.5785" lon="16.95487">
        <ele>105.15918</ele>
        <time>2020-10-08T14:07:44.908Z</time>
      </trkpt>
      <trkpt lat="61.57631" lon="16.95653">
        <ele>104.375097</ele>
        <time>2020-10-08T14:08:41.933Z</time>
      </trkpt>
      <trkpt lat="61.57458" lon="16.96009">
        <ele>102.710019</ele>
        <time>2020-10-08T14:09:27.930Z</time>
      </trkpt>
      <trkpt lat="61.57314" lon="16.96358">
        <ele>90.714857</ele>
        <time>2020-10-08T14:09:53.930Z</time>
      </trkpt>
      <trkpt lat="61.57137" lon="16.9666">
        <ele>86.128453</ele>
        <time>2020-10-08T14:10:24.915Z</time>
      </trkpt>
      <trkpt lat="61.5697" lon="16.96909">
        <ele>92.718219</ele>
        <time>2020-10-08T14:11:36.902Z</time>
      </trkpt>
      <trkpt lat="61.56732" lon="16.97134">
        <ele>83.888739</ele>
        <time>2020-10-08T14:12:16.960Z</time>
      </trkpt>
      <trkpt lat="61.56478" lon="16.97212">
        <ele>74.628014</ele>
        <time>2020-10-08T14:12:58.965Z</time>
      </trkpt>
      <trkpt lat="61.56266" lon="16.97139">
        <ele>86.222027</ele>
        <time>2020-10-08T14:14:13.948Z</time>
      </trkpt>
      <trkpt lat="61.5607" lon="16.97065">
        <ele>96.992055</ele>
        <time>2020-10-08T14:15:37.911Z</time>
      </trkpt>
      <trkpt lat="61.55869" lon="16.9686">
        <ele>97.634513</ele>
        <time>2020-10-08T14:16:34.921Z</time>
      </trkpt>
      <trkpt lat="61.55657" lon="16.9661">
        <ele>88.697622</ele>
        <time>2020-10-08T14:17:26.967Z</time>
      </trkpt>
      <trkpt lat="61.55445" lon="16.96564">
        <ele>88.867183</ele>
        <time>2020-10-08T14:18:16.960Z</time>
      </trkpt>
      <trkpt lat="61.55192" lon="16.96725">
        <ele>80.415887</ele>
        <time>2020-10-08T14:18:56.915Z</time>
      </trkpt>
      <trkpt lat="61.55053" lon="16.97137">
        <ele>74.407836</ele>
        <time>2020-10-08T14:19:37.920Z</time>
      </trkpt>
      <trkpt lat="61.5515" lon="16.97503">
        <ele>73.784599</ele>
        <time>2020-10-08T14:20:39.972Z</time>
      </trkpt>
      <trkpt lat="61.55199" lon="16.97924">
        <ele>75.366446</ele>
        <time>2020-10-08T14:21:28.924Z</time>
      </trkpt>
      <trkpt lat="61.55186" lon="16.98481">
        <ele>64.550682</ele>
        <time>2020-10-08T14:22:03.911Z</time>
      </trkpt>
      <trkpt lat="61.55125" lon="16.9906">
        <ele>57.30431</ele>
        <time>2020-10-08T14:22:42.927Z</time>
      </trkpt>
      <trkpt lat="61.55003" lon="16.99475">
        <ele>55.000462</ele>
        <time>2020-10-08T14:23:29.969Z</time>
      </trkpt>
      <trkpt lat="61.54897" lon="16.9985">
        <ele>59.178344</ele>
        <time>2020-10-08T14:24:39.940Z</time>
      </trkpt>
      <trkpt lat="61.54789" lon="17.00241">
        <ele>60.195911</ele>
        <time>2020-10-08T14:25:41.925Z</time>
      </trkpt>
      <trkpt lat="61.54824" lon="17.00719">
        <ele>57.916383</ele>
        <time>2020-10-08T14:26:29.941Z</time>
      </trkpt>
      <trkpt lat="61.54813" lon="17.01232">
        <ele>50.882549</ele>
        <time>2020-10-08T14:27:09.912Z</time>
      </trkpt>
      <trkpt lat="61.54693" lon="17.01608">
        <ele>47.336386</ele>
        <time>2020-10-08T14:27:51.952Z</time>
      </trkpt>
      <trkpt lat="61.54626" lon="17.02058">
        <ele>41.842482</ele>
        <time>2020-10-08T14:28:36.941Z</time>
      </trkpt>
      <trkpt lat="61.54705" lon="17.02498">
        <ele>38.331085</ele>
        <time>2020-10-08T14:29:16.913Z</time>
      </trkpt>
      <trkpt lat="61.54897" lon="17.02764">
        <ele>42.713605</ele>
        <time>2020-10-08T14:30:09.915Z</time>
      </trkpt>
      <trkpt lat="61.55002" lon="17.03175">
        <ele>44.283385</ele>
        <time>2020-10-08T14:31:00.925Z</time>
      </trkpt>
      <trkpt lat="61.55066" lon="17.03605">
        <ele>42.281571</ele>
        <time>2020-10-08T14:31:50.914Z</time>
      </trkpt>
      <trkpt lat="61.55017" lon="17.04053">
        <ele>48.899195</ele>
        <time>2020-10-08T14:32:43.942Z</time>
      </trkpt>
      <trkpt lat="61.54881" lon="17.04318">
        <ele>40.632567</ele>
        <time>2020-10-08T14:33:30.912Z</time>
      </trkpt>
    </trkseg>
  </trk>
</gpx>